createdAt,value
2017-08-20T00:01:42.808Z,101140.56
2017-08-20T00:04:10.020Z,101141.92
2017-08-20T00:06:37.319Z,101141.87
2017-08-20T00:09:04.630Z,101141.92
2017-08-20T00:11:31.802Z,101147.16
2017-08-20T00:13:59.240Z,101144.12
2017-08-20T00:16:26.697Z,101139.30
2017-08-20T00:18:54.154Z,101138.87
2017-08-20T00:21:21.615Z,101133.64
2017-08-20T00:23:49.194Z,101141.50
2017-08-20T00:26:16.712Z,101138.41
2017-08-20T00:28:43.981Z,101139.77
2017-08-20T00:31:11.450Z,101138.46
2017-08-20T00:33:38.924Z,101136.73
2017-08-20T00:36:06.116Z,101138.52
2017-08-20T00:38:33.623Z,101140.66
2017-08-20T00:41:01.138Z,101141.08
2017-08-20T00:43:28.424Z,101138.94
2017-08-20T00:45:55.897Z,101135.01
2017-08-20T00:48:23.644Z,101139.35
2017-08-20T00:50:51.104Z,101142.86
2017-08-20T00:53:18.761Z,101141.60
2017-08-20T00:55:46.011Z,101145.06
2017-08-20T00:58:13.182Z,101141.13
2017-08-20T01:00:40.617Z,101144.69
2017-08-20T01:03:08.073Z,101142.86
2017-08-20T01:05:35.264Z,101146.00
2017-08-20T01:08:02.755Z,101143.38
2017-08-20T01:10:30.147Z,101143.38
2017-08-20T01:12:57.331Z,101144.22
2017-08-20T01:15:24.858Z,101142.44
2017-08-20T01:17:52.030Z,101153.33
2017-08-20T01:20:19.542Z,101152.13
2017-08-20T01:22:46.811Z,101152.59
2017-08-20T01:25:13.977Z,101155.58
2017-08-20T01:27:41.149Z,101158.25
2017-08-20T01:30:08.568Z,101159.56
2017-08-20T01:32:35.767Z,101162.18
2017-08-20T01:35:03.096Z,101168.25
2017-08-20T01:37:30.948Z,101166.52
2017-08-20T01:39:58.608Z,101167.84
2017-08-20T01:42:25.773Z,101174.38
2017-08-20T01:44:53.318Z,101172.65
2017-08-20T01:47:20.508Z,101173.13
2017-08-20T01:49:47.677Z,101170.03
2017-08-20T01:52:15.017Z,101173.54
2017-08-20T01:54:42.189Z,101170.08
2017-08-20T01:57:10.137Z,101170.88
2017-08-20T01:59:37.593Z,101165.73
2017-08-20T02:02:04.802Z,101164.84
2017-08-20T02:04:31.988Z,101170.50
2017-08-20T02:06:59.158Z,101170.50
2017-08-20T02:09:29.181Z,101168.77
2017-08-20T02:11:56.451Z,101177.94
2017-08-20T02:14:23.826Z,101179.66
2017-08-20T02:16:51.008Z,101179.72
2017-08-20T02:19:18.380Z,101176.80
2017-08-20T02:21:45.564Z,101174.05
2017-08-20T02:24:12.932Z,101182.63
2017-08-20T02:26:40.109Z,101183.02
2017-08-20T02:29:07.277Z,101184.77
2017-08-20T02:31:34.731Z,101175.00
2017-08-20T02:34:01.917Z,101173.88
2017-08-20T02:36:29.104Z,101172.42
2017-08-20T02:38:56.274Z,101178.29
2017-08-20T02:41:23.598Z,101178.75
2017-08-20T02:43:51.062Z,101182.27
2017-08-20T02:46:18.248Z,101182.73
2017-08-20T02:48:45.593Z,101182.36
2017-08-20T02:51:12.766Z,101184.59
2017-08-20T02:53:39.948Z,101185.06
2017-08-20T02:56:07.132Z,101182.45
2017-08-20T02:58:34.762Z,101185.53
2017-08-20T03:01:02.028Z,101185.12
2017-08-20T03:03:29.486Z,101180.30
2017-08-20T03:05:56.940Z,101179.46
2017-08-20T03:08:24.138Z,101192.55
2017-08-20T03:10:51.650Z,101191.66
2017-08-20T03:13:18.825Z,101185.17
2017-08-20T03:15:46.090Z,101190.41
2017-08-20T03:18:13.300Z,101180.35
2017-08-20T03:20:40.770Z,101181.23
2017-08-20T03:23:07.956Z,101188.26
2017-08-20T03:25:35.304Z,101193.07
2017-08-20T03:28:02.519Z,101193.91
2017-08-20T03:30:29.686Z,101197.89
2017-08-20T03:32:57.129Z,101202.19
2017-08-20T03:35:24.648Z,101196.16
2017-08-20T03:37:51.832Z,101196.16
2017-08-20T03:40:19.001Z,101194.38
2017-08-20T03:42:46.169Z,101201.39
2017-08-20T03:45:13.493Z,101193.13
2017-08-20T03:47:40.665Z,101190.55
2017-08-20T03:50:08.275Z,101199.30
2017-08-20T03:52:35.871Z,101200.98
2017-08-20T03:55:03.319Z,101203.17
2017-08-20T03:57:30.951Z,101207.57
2017-08-20T03:59:58.129Z,101216.73
2017-08-20T04:02:25.311Z,101216.73
2017-08-20T04:04:52.481Z,101214.11
2017-08-20T04:07:19.668Z,101223.70
2017-08-20T04:09:47.292Z,101223.28
2017-08-20T04:12:14.612Z,101224.12
2017-08-20T04:14:42.125Z,101230.66
2017-08-20T04:17:09.568Z,101234.59
2017-08-20T04:19:36.972Z,101232.02
2017-08-20T04:22:04.165Z,101224.59
2017-08-20T04:24:31.349Z,101226.78
2017-08-20T04:26:58.731Z,101229.87
2017-08-20T04:29:26.253Z,101230.71
2017-08-20T04:31:53.430Z,101232.49
2017-08-20T04:34:20.620Z,101232.55
2017-08-20T04:36:47.789Z,101246.00
2017-08-20T04:39:15.091Z,101242.50
2017-08-20T04:41:42.261Z,101248.62
2017-08-20T04:44:09.697Z,101250.40
2017-08-20T04:46:37.352Z,101247.36
2017-08-20T04:49:04.647Z,101256.47
2017-08-20T04:51:32.077Z,101248.25
2017-08-20T04:53:59.529Z,101253.44
2017-08-20T04:56:26.716Z,101257.41
2017-08-20T04:58:54.140Z,101256.58
2017-08-20T05:01:21.327Z,101267.89
2017-08-20T05:03:48.924Z,101263.12
2017-08-20T05:06:16.512Z,101259.61
2017-08-20T05:08:43.965Z,101259.19
2017-08-20T05:11:11.152Z,101252.65
2017-08-20T05:13:38.321Z,101253.95
2017-08-20T05:16:05.499Z,101249.56
2017-08-20T05:18:33.050Z,101248.30
2017-08-20T05:21:00.394Z,101253.95
2017-08-20T05:23:27.584Z,101258.30
2017-08-20T05:25:54.941Z,101260.97
2017-08-20T05:28:22.124Z,101256.16
2017-08-20T05:30:49.533Z,101250.92
2017-08-20T05:33:16.999Z,101250.45
2017-08-20T05:35:44.456Z,101247.45
2017-08-20T05:38:11.992Z,101248.30
2017-08-20T05:40:39.372Z,101248.30
2017-08-20T05:43:07.143Z,101252.23
2017-08-20T05:45:34.321Z,101254.00
2017-08-20T05:48:01.489Z,101259.19
2017-08-20T05:50:28.676Z,101264.89
2017-08-20T05:52:56.051Z,101269.25
2017-08-20T05:55:23.221Z,101271.02
2017-08-20T05:57:50.389Z,101266.16
2017-08-20T06:00:18.116Z,101279.72
2017-08-20T06:02:45.288Z,101284.11
2017-08-20T06:05:12.457Z,101282.33
2017-08-20T06:07:39.863Z,101289.34
2017-08-20T06:10:07.516Z,101293.27
2017-08-20T06:12:35.091Z,101298.56
2017-08-20T06:15:02.727Z,101304.21
2017-08-20T06:17:29.911Z,101301.87
2017-08-20T06:19:57.336Z,101308.42
2017-08-20T06:22:24.524Z,101306.73
2017-08-20T06:24:51.757Z,101310.05
2017-08-20T06:27:19.217Z,101317.30
2017-08-20T06:29:46.399Z,101321.18
2017-08-20T06:32:13.570Z,101322.07
2017-08-20T06:34:40.972Z,101332.55
2017-08-20T06:37:08.429Z,101327.72
2017-08-20T06:39:35.895Z,101330.77
2017-08-20T06:42:03.384Z,101336.89
2017-08-20T06:44:30.801Z,101337.78
2017-08-20T06:46:57.970Z,101342.55
2017-08-20T06:49:25.520Z,101334.27
2017-08-20T06:51:52.711Z,101340.39
2017-08-20T06:54:19.877Z,101345.16
2017-08-20T06:56:47.045Z,101343.48
2017-08-20T06:59:14.233Z,101353.02
2017-08-20T07:01:41.423Z,101354.75
2017-08-20T07:04:08.625Z,101351.29
2017-08-20T07:06:36.070Z,101351.23
2017-08-20T07:09:03.261Z,101348.67
2017-08-20T07:11:30.678Z,101354.80
2017-08-20T07:13:58.144Z,101350.45
2017-08-20T07:16:25.910Z,101349.61
2017-08-20T07:18:53.086Z,101357.88
2017-08-20T07:21:20.596Z,101359.61
2017-08-20T07:23:48.162Z,101361.76
2017-08-20T07:26:15.426Z,101363.12
2017-08-20T07:28:42.947Z,101361.34
2017-08-20T07:31:10.339Z,101366.16
2017-08-20T07:33:37.524Z,101375.32
2017-08-20T07:36:04.693Z,101363.12
2017-08-20T07:38:32.089Z,101364.42
2017-08-20T07:40:59.275Z,101369.56
2017-08-20T07:43:27.018Z,101366.11
2017-08-20T07:45:54.397Z,101371.77
2017-08-20T07:48:21.581Z,101381.39
2017-08-20T07:50:49.879Z,101377.00
2017-08-20T07:53:17.461Z,101376.95
2017-08-20T07:55:44.637Z,101380.51
2017-08-20T07:58:11.805Z,101385.73
2017-08-20T08:00:39.448Z,101387.05
2017-08-20T08:03:06.635Z,101380.08
2017-08-20T08:05:34.737Z,101388.36
2017-08-20T08:08:02.250Z,101385.79
2017-08-20T08:10:29.440Z,101381.39
2017-08-20T08:12:56.613Z,101387.94
2017-08-20T08:15:23.796Z,101377.05
2017-08-20T08:17:51.100Z,101385.79
2017-08-20T08:20:18.291Z,101386.21
2017-08-20T08:22:45.653Z,101388.83
2017-08-20T08:25:12.866Z,101391.87
2017-08-20T08:27:40.389Z,101397.99
2017-08-20T08:30:07.629Z,101390.61
2017-08-20T08:32:35.240Z,101389.30
2017-08-20T08:35:02.688Z,101391.02
2017-08-20T08:37:30.145Z,101391.91
2017-08-20T08:39:57.594Z,101393.64
2017-08-20T08:42:24.784Z,101397.10
2017-08-20T08:44:51.953Z,101400.61
2017-08-20T08:47:19.300Z,101399.34
2017-08-20T08:49:46.481Z,101401.50
2017-08-20T08:52:14.583Z,101399.81
2017-08-20T08:54:42.046Z,101401.50
2017-08-20T08:57:09.811Z,101401.92
2017-08-20T08:59:36.989Z,101399.34
2017-08-20T09:02:04.413Z,101394.06
2017-08-20T09:04:31.878Z,101401.08
2017-08-20T09:06:59.515Z,101409.35
2017-08-20T09:09:27.097Z,101409.82
2017-08-20T09:11:54.269Z,101409.82
2017-08-20T09:14:21.700Z,101405.00
2017-08-20T09:16:48.882Z,101413.75
2017-08-20T09:19:16.503Z,101407.20
2017-08-20T09:21:43.689Z,101419.45
2017-08-20T09:24:10.878Z,101408.93
2017-08-20T09:26:38.814Z,101418.09
2017-08-20T09:29:06.131Z,101413.75
2017-08-20T09:31:33.624Z,101413.33
2017-08-20T09:34:01.054Z,101414.72
2017-08-20T09:36:28.503Z,101412.52
2017-08-20T09:38:55.674Z,101408.93
2017-08-20T09:41:23.185Z,101416.78
2017-08-20T09:43:50.675Z,101410.70
2017-08-20T09:46:18.024Z,101407.63
2017-08-20T09:48:45.535Z,101410.23
2017-08-20T09:51:12.942Z,101414.22
2017-08-20T09:53:40.596Z,101415.14
2017-08-20T09:56:07.772Z,101408.98
2017-08-20T09:58:34.945Z,101409.40
2017-08-20T10:01:02.124Z,101395.50
2017-08-20T10:03:30.415Z,101402.44
2017-08-20T10:05:57.997Z,101400.23
2017-08-20T10:08:25.170Z,101399.42
2017-08-20T10:10:52.353Z,101399.01
2017-08-20T10:13:19.525Z,101396.39
2017-08-20T10:15:46.896Z,101398.51
2017-08-20T10:18:14.083Z,101397.70
2017-08-20T10:20:41.267Z,101399.81
2017-08-20T10:23:08.887Z,101397.20
2017-08-20T10:25:36.111Z,101399.63
2017-08-20T10:28:03.303Z,101407.20
2017-08-20T10:30:30.721Z,101411.88
2017-08-20T10:32:58.374Z,101408.83
2017-08-20T10:35:25.549Z,101405.74
2017-08-20T10:37:52.785Z,101408.04
2017-08-20T10:40:19.976Z,101407.70
2017-08-20T10:42:47.393Z,101407.52
2017-08-20T10:45:14.849Z,101412.80
2017-08-20T10:47:42.043Z,101407.44
2017-08-20T10:50:09.457Z,101404.99
2017-08-20T10:52:36.632Z,101407.66
2017-08-20T10:55:04.071Z,101416.03
2017-08-20T10:57:31.263Z,101413.92
2017-08-20T10:59:58.448Z,101410.00
2017-08-20T11:02:26.134Z,101408.27
2017-08-20T11:04:53.590Z,101409.63
2017-08-20T11:07:20.762Z,101407.43
2017-08-20T11:09:48.505Z,101402.61
2017-08-20T11:12:16.151Z,101407.90
2017-08-20T11:14:43.412Z,101406.17
2017-08-20T11:17:10.586Z,101418.80
2017-08-20T11:19:37.758Z,101425.80
2017-08-20T11:22:05.485Z,101418.42
2017-08-20T11:24:32.663Z,101423.61
2017-08-20T11:26:59.847Z,101429.31
2017-08-20T11:29:27.550Z,101429.31
2017-08-20T11:31:54.998Z,101432.35
2017-08-20T11:34:22.169Z,101426.73
2017-08-20T11:36:49.606Z,101426.73
2017-08-20T11:39:17.071Z,101432.40
2017-08-20T11:41:44.708Z,101428.94
2017-08-20T11:44:11.893Z,101432.45
2017-08-20T11:46:39.068Z,101439.41
2017-08-20T11:49:06.276Z,101438.10
2017-08-20T11:51:33.804Z,101434.17
2017-08-20T11:54:01.301Z,101438.57
2017-08-20T11:56:28.714Z,101436.80
2017-08-20T11:58:55.909Z,101428.52
2017-08-20T12:01:23.111Z,101427.20
2017-08-20T12:03:50.567Z,101428.09
2017-08-20T12:06:18.056Z,101438.10
2017-08-20T12:08:45.230Z,101432.91
2017-08-20T12:11:12.467Z,101441.19
2017-08-20T12:13:39.650Z,101443.80
2017-08-20T12:16:06.817Z,101447.31
2017-08-20T12:18:34.234Z,101453.44
2017-08-20T12:21:01.419Z,101448.48
2017-08-20T12:23:28.930Z,101455.87
2017-08-20T12:25:56.105Z,101454.09
2017-08-20T12:28:23.277Z,101452.36
2017-08-20T12:30:50.783Z,101454.61
2017-08-20T12:33:17.959Z,101451.98
2017-08-20T12:35:45.243Z,101468.11
2017-08-20T12:38:12.438Z,101467.50
2017-08-20T12:40:39.814Z,101468.77
2017-08-20T12:43:06.999Z,101456.56
2017-08-20T12:45:34.415Z,101454.41
2017-08-20T12:48:01.589Z,101450.53
2017-08-20T12:50:28.787Z,101452.78
2017-08-20T12:52:56.364Z,101448.02
2017-08-20T12:55:23.543Z,101450.21
2017-08-20T12:57:50.717Z,101440.16
2017-08-20T13:00:18.116Z,101441.52
2017-08-20T13:02:45.385Z,101434.08
2017-08-20T13:05:12.901Z,101433.66
2017-08-20T13:07:40.107Z,101424.97
2017-08-20T13:10:07.296Z,101429.78
2017-08-20T13:12:34.470Z,101427.16
2017-08-20T13:15:01.753Z,101427.16
2017-08-20T13:17:29.415Z,101424.17
2017-08-20T13:19:56.600Z,101421.55
2017-08-20T13:22:23.787Z,101421.08
2017-08-20T13:24:51.888Z,101421.55
2017-08-20T13:27:19.557Z,101414.16
2017-08-20T13:29:46.801Z,101410.61
2017-08-20T13:32:14.266Z,101417.63
2017-08-20T13:34:41.441Z,101409.35
2017-08-20T13:37:09.180Z,101413.33
2017-08-20T13:39:36.744Z,101413.33
2017-08-20T13:42:03.921Z,101418.98
2017-08-20T13:44:31.427Z,101419.41
2017-08-20T13:46:59.195Z,101423.80
2017-08-20T13:49:26.466Z,101424.22
2017-08-20T13:51:53.923Z,101430.34
2017-08-20T13:54:21.366Z,101429.53
2017-08-20T13:56:48.835Z,101437.39
2017-08-20T13:59:16.021Z,101442.12
2017-08-20T14:01:43.215Z,101439.92
2017-08-20T14:04:10.441Z,101441.70
2017-08-20T14:06:38.741Z,101437.78
2017-08-20T14:09:06.162Z,101435.66
2017-08-20T14:11:33.819Z,101441.31
2017-08-20T14:14:01.047Z,101435.66
2017-08-20T14:16:28.802Z,101437.78
2017-08-20T14:18:55.977Z,101434.35
2017-08-20T14:21:23.513Z,101430.00
2017-08-20T14:23:50.860Z,101428.22
2017-08-20T14:26:18.631Z,101435.23
2017-08-20T14:28:45.849Z,101437.86
2017-08-20T14:31:13.432Z,101444.36
2017-08-20T14:33:40.653Z,101439.45
2017-08-20T14:36:09.072Z,101449.38
2017-08-20T14:38:36.585Z,101448.81
2017-08-20T14:41:04.177Z,101445.73
2017-08-20T14:43:31.779Z,101453.35
2017-08-20T14:45:59.204Z,101451.38
2017-08-20T14:48:26.504Z,101446.23
2017-08-20T14:50:54.322Z,101451.09
2017-08-20T14:53:21.889Z,101457.22
2017-08-20T14:55:49.456Z,101450.72
2017-08-20T14:58:16.790Z,101450.25
2017-08-20T15:00:43.975Z,101443.29
2017-08-20T15:03:12.135Z,101445.53
2017-08-20T15:05:39.763Z,101444.23
2017-08-20T15:08:07.246Z,101445.53
2017-08-20T15:10:34.699Z,101440.72
2017-08-20T15:13:01.942Z,101433.34
2017-08-20T15:15:30.498Z,101433.80
2017-08-20T15:17:58.614Z,101432.91
2017-08-20T15:20:25.799Z,101434.69
2017-08-20T15:22:53.397Z,101438.62
2017-08-20T15:25:20.675Z,101445.11
2017-08-20T15:27:47.871Z,101446.00
2017-08-20T15:30:15.277Z,101447.27
2017-08-20T15:32:42.472Z,101455.21
2017-08-20T15:35:09.890Z,101451.23
2017-08-20T15:37:37.342Z,101450.82
2017-08-20T15:40:04.796Z,101455.16
2017-08-20T15:42:32.261Z,101456.94
2017-08-20T15:44:59.904Z,101452.59
2017-08-20T15:47:27.095Z,101457.83
2017-08-20T15:49:54.330Z,101463.06
2017-08-20T15:52:21.980Z,101464.37
2017-08-20T15:54:49.173Z,101471.34
2017-08-20T15:57:16.376Z,101464.88
2017-08-20T15:59:43.842Z,101466.11
2017-08-20T16:02:11.301Z,101460.95
2017-08-20T16:04:38.753Z,101458.72
2017-08-20T16:07:06.220Z,101457.02
2017-08-20T16:09:33.677Z,101450.48
2017-08-20T16:12:01.912Z,101444.82
2017-08-20T16:14:29.200Z,101457.02
2017-08-20T16:16:56.383Z,101449.17
2017-08-20T16:19:23.562Z,101450.06
2017-08-20T16:21:50.967Z,101453.61
2017-08-20T16:24:18.481Z,101452.72
2017-08-20T16:26:45.873Z,101453.98
2017-08-20T16:29:13.513Z,101448.75
2017-08-20T16:31:40.756Z,101454.45
2017-08-20T16:34:08.924Z,101451.84
2017-08-20T16:36:36.318Z,101444.82
2017-08-20T16:39:03.711Z,101450.48
2017-08-20T16:41:31.000Z,101447.48
2017-08-20T16:43:58.178Z,101448.80
2017-08-20T16:46:25.350Z,101450.52
2017-08-20T16:48:52.879Z,101444.41
2017-08-20T16:51:20.195Z,101444.87
2017-08-20T16:53:47.370Z,101443.94
2017-08-20T16:56:15.059Z,101438.32
2017-08-20T16:58:42.229Z,101434.81
2017-08-20T17:01:09.493Z,101435.28
2017-08-20T17:03:37.007Z,101430.94
2017-08-20T17:06:04.887Z,101423.50
2017-08-20T17:08:32.349Z,101429.63
2017-08-20T17:10:59.797Z,101423.97
2017-08-20T17:13:27.379Z,101421.35
2017-08-20T17:15:54.614Z,101423.13
2017-08-20T17:18:21.911Z,101428.73
2017-08-20T17:20:49.658Z,101421.78
2017-08-20T17:23:17.045Z,101427.44
2017-08-20T17:25:45.145Z,101421.35
2017-08-20T17:28:12.317Z,101430.05
2017-08-20T17:30:39.757Z,101436.17
2017-08-20T17:33:07.227Z,101433.55
2017-08-20T17:35:34.785Z,101437.91
2017-08-20T17:38:01.962Z,101434.86
2017-08-20T17:40:29.391Z,101440.52
2017-08-20T17:42:56.570Z,101439.21
2017-08-20T17:45:23.885Z,101437.06
2017-08-20T17:47:51.072Z,101433.98
2017-08-20T17:50:18.822Z,101439.68
2017-08-20T17:52:46.456Z,101442.77
2017-08-20T17:55:13.773Z,101443.19
2017-08-20T17:57:41.292Z,101445.34
2017-08-20T18:00:08.634Z,101448.42
2017-08-20T18:02:35.820Z,101458.05
2017-08-20T18:05:03.246Z,101454.08
2017-08-20T18:07:30.434Z,101455.39
2017-08-20T18:09:57.620Z,101458.47
2017-08-20T18:12:25.001Z,101460.20
2017-08-20T18:14:52.512Z,101463.29
2017-08-20T18:17:20.105Z,101465.44
2017-08-20T18:19:47.372Z,101471.56
2017-08-20T18:22:15.016Z,101478.99
2017-08-20T18:24:42.601Z,101475.95
2017-08-20T18:27:09.770Z,101475.95
2017-08-20T18:29:36.955Z,101478.11
2017-08-20T18:32:04.657Z,101480.30
2017-08-20T18:34:31.845Z,101482.03
2017-08-20T18:36:59.296Z,101483.81
2017-08-20T18:39:26.728Z,101485.96
2017-08-20T18:41:54.352Z,101489.52
2017-08-20T18:44:21.633Z,101493.45
2017-08-20T18:46:48.889Z,101499.27
2017-08-20T18:49:16.240Z,101504.58
2017-08-20T18:51:43.706Z,101513.47
2017-08-20T18:54:10.878Z,101510.05
2017-08-20T18:56:38.357Z,101511.41
2017-08-20T18:59:05.875Z,101514.07
2017-08-20T19:01:33.416Z,101513.66
2017-08-20T19:04:00.597Z,101519.78
2017-08-20T19:06:27.781Z,101519.44
2017-08-20T19:08:54.972Z,101516.81
2017-08-20T19:11:23.056Z,101520.32
2017-08-20T19:13:50.729Z,101517.28
2017-08-20T19:16:19.641Z,101519.48
2017-08-20T19:18:47.137Z,101527.28
2017-08-20T19:21:14.731Z,101526.49
2017-08-20T19:23:41.928Z,101531.27
2017-08-20T19:26:09.329Z,101536.92
2017-08-20T19:28:36.708Z,101538.69
2017-08-20T19:31:04.553Z,101539.11
2017-08-20T19:33:32.090Z,101540.42
2017-08-20T19:35:59.360Z,101546.08
2017-08-20T19:38:26.575Z,101550.05
2017-08-20T19:40:55.994Z,101553.56
2017-08-20T19:43:24.273Z,101557.48
2017-08-20T19:45:51.749Z,101549.63
2017-08-20T19:48:19.571Z,101557.95
2017-08-20T19:50:46.864Z,101558.38
2017-08-20T19:53:14.312Z,101560.99
2017-08-20T19:55:41.490Z,101560.15
2017-08-20T19:58:08.657Z,101569.27
2017-08-20T20:00:36.156Z,101565.38
2017-08-20T20:03:04.326Z,101560.15
2017-08-20T20:05:31.843Z,101563.23
2017-08-20T20:07:59.021Z,101561.92
2017-08-20T20:10:26.196Z,101563.23
2017-08-20T20:12:53.380Z,101573.66
2017-08-20T20:15:20.572Z,101582.83
2017-08-20T20:17:47.763Z,101574.55
2017-08-20T20:20:15.235Z,101581.52
2017-08-20T20:22:42.889Z,101582.45
2017-08-20T20:25:10.131Z,101579.83
2017-08-20T20:27:37.642Z,101568.89
2017-08-20T20:30:04.830Z,101568.47
2017-08-20T20:32:32.000Z,101564.59
2017-08-20T20:34:59.452Z,101565.90
2017-08-20T20:37:27.125Z,101560.66
2017-08-20T20:39:54.585Z,101556.73
2017-08-20T20:42:22.114Z,101554.58
2017-08-20T20:44:49.306Z,101559.40
2017-08-20T20:47:16.652Z,101566.41
2017-08-20T20:49:44.329Z,101568.98
2017-08-20T20:52:11.539Z,101570.71
2017-08-20T20:54:39.118Z,101579.45
2017-08-20T20:57:06.312Z,101579.45
2017-08-20T20:59:33.626Z,101578.98
2017-08-20T21:02:00.813Z,101576.84
2017-08-20T21:04:28.334Z,101578.98
2017-08-20T21:06:55.691Z,101582.91
2017-08-20T21:09:22.869Z,101595.16
2017-08-20T21:11:50.487Z,101586.00
2017-08-20T21:14:17.657Z,101584.27
2017-08-20T21:16:45.666Z,101574.69
2017-08-20T21:19:12.940Z,101568.56
2017-08-20T21:21:40.913Z,101569.45
2017-08-20T21:24:08.086Z,101577.30
2017-08-20T21:26:35.272Z,101575.53
2017-08-20T21:29:02.808Z,101569.88
2017-08-20T21:31:29.996Z,101563.33
2017-08-20T21:33:57.518Z,101561.59
2017-08-20T21:36:25.059Z,101560.70
2017-08-20T21:38:52.248Z,101556.36
2017-08-20T21:41:19.475Z,101561.12
2017-08-20T21:43:46.929Z,101568.56
2017-08-20T21:46:14.384Z,101566.83
2017-08-20T21:48:41.772Z,101566.83
2017-08-20T21:51:09.065Z,101570.34
2017-08-20T21:53:36.453Z,101564.68
2017-08-20T21:56:04.099Z,101550.28
2017-08-20T21:58:31.373Z,101546.83
2017-08-20T22:00:58.934Z,101564.22
2017-08-20T22:03:26.116Z,101551.59
2017-08-20T22:05:53.296Z,101555.94
2017-08-20T22:08:20.892Z,101555.52
2017-08-20T22:10:48.076Z,101563.79
2017-08-20T22:13:15.242Z,101562.02
2017-08-20T22:15:42.714Z,101571.27
2017-08-20T22:18:10.114Z,101568.19
2017-08-20T22:20:37.290Z,101557.30
2017-08-20T22:23:04.462Z,101558.13
2017-08-20T22:25:31.643Z,101561.22
2017-08-20T22:27:58.817Z,101559.45
2017-08-20T22:30:25.989Z,101562.95
2017-08-20T22:32:53.315Z,101561.64
2017-08-20T22:35:20.504Z,101555.98
2017-08-20T22:37:48.507Z,101555.52
2017-08-20T22:40:16.659Z,101548.97
2017-08-20T22:42:44.054Z,101545.05
2017-08-20T22:45:11.616Z,101543.78
2017-08-20T22:47:38.800Z,101549.44
2017-08-20T22:50:06.119Z,101545.56
2017-08-20T22:52:33.297Z,101545.94
2017-08-20T22:55:00.485Z,101543.36
2017-08-20T22:57:27.984Z,101550.33
2017-08-20T22:59:55.180Z,101548.59
2017-08-20T23:02:22.694Z,101542.94
2017-08-20T23:04:49.869Z,101536.40
2017-08-20T23:07:17.045Z,101544.67
2017-08-20T23:09:44.245Z,101535.52
2017-08-20T23:12:11.889Z,101539.44
2017-08-20T23:14:39.329Z,101532.47
2017-08-20T23:17:06.931Z,101540.28
2017-08-20T23:19:34.379Z,101536.34
2017-08-20T23:22:02.896Z,101534.67
2017-08-20T23:24:30.273Z,101536.40
2017-08-20T23:26:57.791Z,101534.67
2017-08-20T23:29:24.966Z,101535.97
2017-08-20T23:31:53.209Z,101532.94
2017-08-20T23:34:21.093Z,101530.74
2017-08-20T23:36:48.277Z,101523.31
2017-08-20T23:39:15.959Z,101526.81
2017-08-20T23:41:43.547Z,101518.12
2017-08-20T23:44:11.109Z,101517.66
2017-08-20T23:46:38.557Z,101523.36
2017-08-20T23:49:05.744Z,101536.40
2017-08-20T23:51:33.480Z,101535.97
2017-08-20T23:54:00.933Z,101537.70
2017-08-20T23:56:28.140Z,101545.14
2017-08-20T23:58:55.328Z,101541.63
